Clarks Grove, Minnesota
Current Conditions -  °F | °C
As of 1:12 AM on Friday 19 Dec 2014 (Local Time) from KAEL Reporting Station
Overcast Overcast  
Wind Chill: 19°   Ceiling: 7000
Heat Index: 25°   Visibility: 7mi
Dew Point: 21°   Wind: 5mph
Humidity: 86%   Direction: 170°S
Pressure: 30.24"   Gusts: NA
Location:  43.76°N, 93.33°W
Report Text: KAEL 190712Z AUTO 17004KT 7SM OVC070 M04/M06 A3024 RMK AO2
Loading
Personal Weather Stations






























Interactive Weather Map New forecast layout! Learn more

10-Day Weather Forecast

Advertisements
Track Severe Weather on mobile